createdAt,value
2022-09-06T00:00:00.464Z,18.16
2022-09-06T00:01:00.448Z,18.16
2022-09-06T00:02:00.272Z,18.08
2022-09-06T00:03:00.650Z,18.08
2022-09-06T00:04:00.329Z,18.08
2022-09-06T00:05:00.812Z,18.08
2022-09-06T00:06:04.589Z,18.08
2022-09-06T00:07:00.259Z,18.08
2022-09-06T00:08:01.877Z,18.08
2022-09-06T00:09:00.257Z,18.08
2022-09-06T00:10:00.279Z,18.08
2022-09-06T00:11:01.435Z,18.08
2022-09-06T00:12:00.274Z,18.04
2022-09-06T00:13:01.498Z,18.04
2022-09-06T00:14:00.325Z,18.04
2022-09-06T00:15:00.340Z,18.04
2022-09-06T00:16:04.519Z,18.04
2022-09-06T00:17:00.291Z,18.02
2022-09-06T00:18:01.105Z,18.02
2022-09-06T00:19:00.531Z,18.02
2022-09-06T00:20:00.635Z,18.02
2022-09-06T00:21:00.269Z,18.02
2022-09-06T00:22:00.442Z,18.04
2022-09-06T00:23:01.686Z,18.04
2022-09-06T00:24:00.393Z,18.04
2022-09-06T00:25:00.274Z,18.04
2022-09-06T00:26:01.109Z,18.04
2022-09-06T00:27:00.262Z,18.04
2022-09-06T00:28:01.613Z,18.04
2022-09-06T00:29:00.308Z,18.04
2022-09-06T00:30:00.304Z,18.04
2022-09-06T00:31:08.564Z,18.04
2022-09-06T00:32:00.563Z,18.03
2022-09-06T00:33:00.285Z,18.03
2022-09-06T00:34:00.290Z,18.03
2022-09-06T00:35:00.263Z,18.03
2022-09-06T00:36:00.346Z,18.03
2022-09-06T00:37:00.273Z,18.02
2022-09-06T00:38:01.099Z,18.02
2022-09-06T00:39:00.370Z,18.02
2022-09-06T00:40:00.463Z,18.02
2022-09-06T00:41:00.304Z,18.02
2022-09-06T00:42:00.391Z,17.99
2022-09-06T00:43:00.277Z,17.99
2022-09-06T00:44:00.365Z,17.99
2022-09-06T00:45:00.336Z,17.99
2022-09-06T00:46:01.135Z,17.99
2022-09-06T00:47:00.714Z,17.93
2022-09-06T00:48:01.031Z,17.93
2022-09-06T00:49:04.409Z,17.93
2022-09-06T00:50:01.484Z,17.93
2022-09-06T00:51:02.893Z,17.93
2022-09-06T00:52:02.366Z,17.96
2022-09-06T00:53:00.449Z,17.96
2022-09-06T00:54:02.991Z,17.96
2022-09-06T00:55:00.727Z,17.96
2022-09-06T00:56:00.570Z,17.96
2022-09-06T00:57:00.703Z,17.89
2022-09-06T00:58:00.389Z,17.89
2022-09-06T00:59:00.575Z,17.89
2022-09-06T01:00:01.177Z,17.89
2022-09-06T01:01:00.290Z,17.89
2022-09-06T01:02:00.409Z,17.91
2022-09-06T01:03:00.441Z,17.91
2022-09-06T01:04:00.677Z,17.91
2022-09-06T01:05:01.340Z,17.91
2022-09-06T01:06:01.263Z,17.91
2022-09-06T01:07:00.244Z,17.89
2022-09-06T01:08:07.469Z,17.89
2022-09-06T01:09:06.164Z,17.89
2022-09-06T01:10:10.211Z,17.89
2022-09-06T01:11:09.104Z,17.89
2022-09-06T01:12:00.239Z,17.77
2022-09-06T01:13:00.240Z,17.77
2022-09-06T01:14:09.416Z,17.77
2022-09-06T01:15:10.236Z,17.77
2022-09-06T01:16:10.312Z,17.77
2022-09-06T01:17:07.621Z,17.67
2022-09-06T01:18:07.828Z,17.67
2022-09-06T01:19:10.212Z,17.67
2022-09-06T01:20:01.304Z,17.67
2022-09-06T01:21:10.166Z,17.67
2022-09-06T01:22:10.167Z,17.63
2022-09-06T01:23:10.198Z,17.63
2022-09-06T01:24:10.215Z,17.63
2022-09-06T01:25:03.574Z,17.63
2022-09-06T01:26:10.165Z,17.63
2022-09-06T01:27:10.199Z,17.59
2022-09-06T01:28:07.954Z,17.59
2022-09-06T01:29:01.266Z,17.59
2022-09-06T01:30:05.576Z,17.59
2022-09-06T01:31:08.008Z,17.59
2022-09-06T01:32:06.670Z,17.55
2022-09-06T01:33:10.198Z,17.55
2022-09-06T01:34:07.785Z,17.55
2022-09-06T01:35:10.208Z,17.55
2022-09-06T01:36:02.206Z,17.55
2022-09-06T01:37:09.849Z,17.45
2022-09-06T01:38:00.786Z,17.45
2022-09-06T01:39:00.803Z,17.45
2022-09-06T01:40:00.403Z,17.45
2022-09-06T01:41:00.388Z,17.45
2022-09-06T01:42:06.153Z,17.41
2022-09-06T01:43:00.347Z,17.41
2022-09-06T01:44:00.348Z,17.41
2022-09-06T01:45:02.332Z,17.41
2022-09-06T01:46:03.707Z,17.41
2022-09-06T01:47:00.236Z,17.36
2022-09-06T01:48:10.201Z,17.36
2022-09-06T01:49:10.204Z,17.36
2022-09-06T01:50:03.561Z,17.36
2022-09-06T01:51:00.251Z,17.36
2022-09-06T01:52:03.620Z,17.36
2022-09-06T01:53:00.293Z,17.36
2022-09-06T01:54:01.296Z,17.36
2022-09-06T01:55:06.878Z,17.36
2022-09-06T01:56:07.849Z,17.36
2022-09-06T01:57:10.242Z,17.33
2022-09-06T01:58:00.252Z,17.33
2022-09-06T01:59:00.252Z,17.33
2022-09-06T02:00:02.925Z,17.33
2022-09-06T02:01:10.263Z,17.33
2022-09-06T02:02:00.251Z,17.29
2022-09-06T02:03:10.216Z,17.29
2022-09-06T02:04:10.219Z,17.29
2022-09-06T02:05:05.648Z,17.29
2022-09-06T02:06:03.728Z,17.29
2022-09-06T02:07:02.522Z,17.22
2022-09-06T02:08:03.421Z,17.22
2022-09-06T02:09:03.652Z,17.22
2022-09-06T02:10:10.238Z,17.22
2022-09-06T02:11:02.842Z,17.22
2022-09-06T02:12:01.328Z,17.16
2022-09-06T02:13:01.268Z,17.16
2022-09-06T02:14:04.078Z,17.16
2022-09-06T02:15:04.957Z,17.16
2022-09-06T02:16:02.084Z,17.16
2022-09-06T02:17:01.610Z,17.12
2022-09-06T02:18:03.514Z,17.12
2022-09-06T02:19:10.171Z,17.12
2022-09-06T02:20:04.125Z,17.12
2022-09-06T02:21:01.848Z,17.12
2022-09-06T02:22:03.668Z,17.14
2022-09-06T02:23:02.659Z,17.14
2022-09-06T02:24:01.218Z,17.14
2022-09-06T02:25:01.414Z,17.14
2022-09-06T02:26:10.142Z,17.14
2022-09-06T02:27:00.312Z,17.25
2022-09-06T02:28:00.488Z,17.25
2022-09-06T02:29:00.805Z,17.25
2022-09-06T02:30:00.328Z,17.25
2022-09-06T02:31:02.759Z,17.25
2022-09-06T02:32:10.215Z,17.29
2022-09-06T02:33:05.933Z,17.29
2022-09-06T02:34:00.942Z,17.29
2022-09-06T02:35:06.500Z,17.29
2022-09-06T02:36:03.363Z,17.29
2022-09-06T02:37:00.529Z,17.32
2022-09-06T02:38:01.045Z,17.32
2022-09-06T02:39:00.388Z,17.32
2022-09-06T02:40:00.436Z,17.32
2022-09-06T02:41:00.797Z,17.32
2022-09-06T02:42:00.571Z,17.36
2022-09-06T02:43:00.261Z,17.36
2022-09-06T02:44:01.461Z,17.36
2022-09-06T02:45:00.345Z,17.36
2022-09-06T02:46:00.357Z,17.36
2022-09-06T02:47:00.284Z,17.37
2022-09-06T02:48:00.345Z,17.37
2022-09-06T02:49:00.400Z,17.37
2022-09-06T02:50:00.279Z,17.37
2022-09-06T02:51:02.085Z,17.37
2022-09-06T02:52:00.356Z,17.38
2022-09-06T02:53:04.998Z,17.38
2022-09-06T02:54:00.274Z,17.38
2022-09-06T02:55:00.283Z,17.38
2022-09-06T02:56:00.892Z,17.38
2022-09-06T02:57:00.270Z,17.40
2022-09-06T02:58:00.288Z,17.40
2022-09-06T02:59:00.310Z,17.40
2022-09-06T03:00:00.479Z,17.40
2022-09-06T03:01:00.603Z,17.40
2022-09-06T03:02:00.395Z,17.40
2022-09-06T03:03:00.338Z,17.40
2022-09-06T03:04:00.397Z,17.40
2022-09-06T03:05:00.305Z,17.40
2022-09-06T03:06:00.271Z,17.40
2022-09-06T03:07:00.352Z,17.41
2022-09-06T03:08:00.316Z,17.41
2022-09-06T03:09:00.620Z,17.41
2022-09-06T03:10:00.404Z,17.41
2022-09-06T03:11:00.490Z,17.41
2022-09-06T03:12:00.321Z,17.41
2022-09-06T03:13:00.324Z,17.41
2022-09-06T03:14:00.307Z,17.41
2022-09-06T03:15:05.593Z,17.41
2022-09-06T03:16:01.125Z,17.41
2022-09-06T03:17:00.615Z,17.41
2022-09-06T03:18:00.373Z,17.41
2022-09-06T03:19:00.262Z,17.41
2022-09-06T03:20:00.439Z,17.41
2022-09-06T03:21:00.475Z,17.41
2022-09-06T03:22:00.286Z,17.41
2022-09-06T03:23:00.290Z,17.41
2022-09-06T03:24:00.327Z,17.41
2022-09-06T03:25:00.308Z,17.41
2022-09-06T03:26:00.505Z,17.41
2022-09-06T03:27:00.279Z,17.40
2022-09-06T03:28:00.393Z,17.40
2022-09-06T03:29:00.312Z,17.40
2022-09-06T03:30:00.323Z,17.40
2022-09-06T03:31:00.362Z,17.40
2022-09-06T03:32:00.397Z,17.38
2022-09-06T03:33:02.856Z,17.38
2022-09-06T03:34:00.274Z,17.38
2022-09-06T03:35:00.286Z,17.38
2022-09-06T03:36:01.262Z,17.38
2022-09-06T03:37:00.285Z,17.36
2022-09-06T03:38:00.287Z,17.36
2022-09-06T03:39:00.283Z,17.36
2022-09-06T03:40:00.613Z,17.36
2022-09-06T03:41:00.286Z,17.36
2022-09-06T03:42:00.425Z,17.32
2022-09-06T03:43:00.309Z,17.32
2022-09-06T03:44:00.351Z,17.32
2022-09-06T03:45:00.293Z,17.32
2022-09-06T03:46:00.382Z,17.32
2022-09-06T03:47:00.465Z,17.30
2022-09-06T03:48:00.292Z,17.30
2022-09-06T03:49:00.640Z,17.30
2022-09-06T03:50:00.405Z,17.30
2022-09-06T03:51:00.383Z,17.30
2022-09-06T03:52:00.487Z,17.27
2022-09-06T03:53:00.265Z,17.27
2022-09-06T03:54:00.352Z,17.27
2022-09-06T03:55:00.353Z,17.27
2022-09-06T03:56:00.288Z,17.27
2022-09-06T03:57:00.388Z,17.27
2022-09-06T03:58:00.335Z,17.27
2022-09-06T03:59:00.314Z,17.27
2022-09-06T04:00:00.373Z,17.27
2022-09-06T04:01:03.025Z,17.27
2022-09-06T04:02:00.534Z,17.27
2022-09-06T04:03:01.912Z,17.27
2022-09-06T04:04:00.449Z,17.27
2022-09-06T04:05:00.286Z,17.27
2022-09-06T04:06:00.604Z,17.27
2022-09-06T04:07:00.278Z,17.26
2022-09-06T04:08:00.374Z,17.26
2022-09-06T04:09:00.273Z,17.26
2022-09-06T04:10:00.272Z,17.26
2022-09-06T04:11:00.355Z,17.26
2022-09-06T04:12:00.337Z,17.27
2022-09-06T04:13:00.331Z,17.27
2022-09-06T04:14:01.042Z,17.27
2022-09-06T04:15:00.321Z,17.27
2022-09-06T04:16:00.324Z,17.27
2022-09-06T04:17:00.319Z,17.24
2022-09-06T04:18:00.267Z,17.24
2022-09-06T04:19:00.307Z,17.24
2022-09-06T04:20:00.380Z,17.24
2022-09-06T04:21:00.274Z,17.24
2022-09-06T04:22:00.295Z,17.24
2022-09-06T04:23:00.274Z,17.24
2022-09-06T04:24:00.469Z,17.24
2022-09-06T04:25:00.335Z,17.24
2022-09-06T04:26:00.272Z,17.24
2022-09-06T04:27:00.285Z,17.25
2022-09-06T04:28:00.370Z,17.25
2022-09-06T04:29:00.338Z,17.25
2022-09-06T04:30:00.453Z,17.25
2022-09-06T04:31:04.618Z,17.25
2022-09-06T04:32:00.467Z,17.26
2022-09-06T04:33:00.286Z,17.26
2022-09-06T04:34:00.315Z,17.26
2022-09-06T04:35:00.355Z,17.26
2022-09-06T04:36:01.023Z,17.26
2022-09-06T04:37:00.347Z,17.26
2022-09-06T04:38:00.535Z,17.26
2022-09-06T04:39:00.270Z,17.26
2022-09-06T04:40:00.446Z,17.26
2022-09-06T04:41:00.887Z,17.26
2022-09-06T04:42:00.297Z,17.25
2022-09-06T04:43:00.280Z,17.25
2022-09-06T04:44:00.313Z,17.25
2022-09-06T04:45:00.319Z,17.25
2022-09-06T04:46:02.133Z,17.25
2022-09-06T04:47:07.461Z,17.24
2022-09-06T04:48:00.332Z,17.24
2022-09-06T04:49:00.273Z,17.24
2022-09-06T04:50:00.565Z,17.24
2022-09-06T04:51:00.252Z,17.24
2022-09-06T04:52:00.280Z,17.24
2022-09-06T04:53:00.262Z,17.24
2022-09-06T04:54:00.279Z,17.24
2022-09-06T04:55:00.280Z,17.24
2022-09-06T04:56:00.369Z,17.24
2022-09-06T04:57:00.373Z,17.26
2022-09-06T04:58:00.498Z,17.26
2022-09-06T04:59:00.305Z,17.26
2022-09-06T05:00:00.416Z,17.26
2022-09-06T05:01:00.344Z,17.26
2022-09-06T05:02:00.336Z,17.25
2022-09-06T05:03:00.365Z,17.25
2022-09-06T05:04:00.327Z,17.25
2022-09-06T05:05:00.315Z,17.25
2022-09-06T05:06:04.815Z,17.25
2022-09-06T05:07:01.920Z,17.25
2022-09-06T05:08:00.327Z,17.25
2022-09-06T05:09:00.275Z,17.25
2022-09-06T05:10:00.279Z,17.25
2022-09-06T05:11:00.304Z,17.25
2022-09-06T05:12:00.356Z,17.23
2022-09-06T05:13:00.329Z,17.23
2022-09-06T05:14:00.319Z,17.23
2022-09-06T05:15:00.311Z,17.23
2022-09-06T05:16:00.798Z,17.23
2022-09-06T05:17:00.275Z,17.21
2022-09-06T05:18:00.796Z,17.21
2022-09-06T05:19:00.288Z,17.21
2022-09-06T05:20:00.279Z,17.21
2022-09-06T05:21:00.433Z,17.21
2022-09-06T05:22:00.274Z,17.20
2022-09-06T05:23:00.295Z,17.20
2022-09-06T05:24:00.320Z,17.20
2022-09-06T05:25:00.363Z,17.20
2022-09-06T05:26:00.349Z,17.20
2022-09-06T05:27:00.360Z,17.19
2022-09-06T05:28:00.341Z,17.19
2022-09-06T05:29:00.301Z,17.19
2022-09-06T05:30:00.342Z,17.19
2022-09-06T05:31:10.194Z,17.19
2022-09-06T05:32:00.388Z,17.18
2022-09-06T05:33:00.274Z,17.18
2022-09-06T05:34:00.297Z,17.18
2022-09-06T05:35:00.264Z,17.18
2022-09-06T05:36:00.358Z,17.18
2022-09-06T05:37:00.268Z,17.18
2022-09-06T05:38:00.319Z,17.18
2022-09-06T05:39:00.292Z,17.18
2022-09-06T05:40:00.431Z,17.18
2022-09-06T05:41:00.295Z,17.18
2022-09-06T05:42:00.573Z,17.16
2022-09-06T05:43:00.253Z,17.16
2022-09-06T05:44:00.294Z,17.16
2022-09-06T05:45:00.744Z,17.16
2022-09-06T05:46:00.395Z,17.16
2022-09-06T05:47:00.336Z,17.15
2022-09-06T05:48:00.325Z,17.15
2022-09-06T05:49:00.346Z,17.15
2022-09-06T05:50:01.090Z,17.15
2022-09-06T05:51:03.120Z,17.15
2022-09-06T05:52:00.359Z,17.16
2022-09-06T05:53:00.291Z,17.16
2022-09-06T05:54:00.342Z,17.16
2022-09-06T05:55:00.688Z,17.16
2022-09-06T05:56:00.435Z,17.16
2022-09-06T05:57:00.479Z,17.16
2022-09-06T05:58:00.269Z,17.16
2022-09-06T05:59:00.268Z,17.16
2022-09-06T06:00:00.424Z,17.16
2022-09-06T06:01:06.921Z,17.16
2022-09-06T06:02:03.231Z,17.19
2022-09-06T06:03:00.276Z,17.19
2022-09-06T06:04:01.349Z,17.19
2022-09-06T06:05:00.272Z,17.19
2022-09-06T06:06:00.507Z,17.19
2022-09-06T06:07:00.267Z,17.22
2022-09-06T06:08:00.347Z,17.22
2022-09-06T06:09:00.411Z,17.22
2022-09-06T06:10:00.389Z,17.22
2022-09-06T06:11:00.426Z,17.22
2022-09-06T06:12:00.296Z,17.25
2022-09-06T06:13:00.321Z,17.25
2022-09-06T06:14:01.366Z,17.25
2022-09-06T06:15:00.296Z,17.25
2022-09-06T06:16:00.678Z,17.25
2022-09-06T06:17:00.676Z,17.30
2022-09-06T06:18:00.268Z,17.30
2022-09-06T06:19:00.256Z,17.30
2022-09-06T06:20:00.366Z,17.30
2022-09-06T06:21:10.185Z,17.30
2022-09-06T06:22:00.337Z,17.35
2022-09-06T06:23:00.270Z,17.35
2022-09-06T06:24:01.379Z,17.35
2022-09-06T06:25:00.301Z,17.35
2022-09-06T06:26:00.276Z,17.35
2022-09-06T06:27:00.267Z,17.51
2022-09-06T06:28:00.255Z,17.51
2022-09-06T06:29:00.278Z,17.51
2022-09-06T06:30:00.357Z,17.51
2022-09-06T06:31:00.838Z,17.51
2022-09-06T06:32:00.450Z,17.62
2022-09-06T06:33:00.284Z,17.62
2022-09-06T06:34:00.716Z,17.62
2022-09-06T06:35:00.355Z,17.62
2022-09-06T06:36:00.721Z,17.62
2022-09-06T06:37:00.289Z,17.76
2022-09-06T06:38:00.263Z,17.76
2022-09-06T06:39:01.064Z,17.76
2022-09-06T06:40:00.585Z,17.76
2022-09-06T06:41:04.527Z,17.76
2022-09-06T06:42:00.279Z,17.92
2022-09-06T06:43:00.303Z,17.92
2022-09-06T06:44:01.540Z,17.92
2022-09-06T06:45:00.266Z,17.92
2022-09-06T06:46:00.357Z,17.92
2022-09-06T06:47:00.274Z,17.97
2022-09-06T06:48:00.266Z,17.97
2022-09-06T06:49:00.272Z,17.97
2022-09-06T06:50:00.286Z,17.97
2022-09-06T06:51:00.296Z,17.97
2022-09-06T06:52:00.262Z,18.01
2022-09-06T06:53:00.303Z,18.01
2022-09-06T06:54:00.279Z,18.01
2022-09-06T06:55:00.274Z,18.01
2022-09-06T06:56:00.742Z,18.01
2022-09-06T06:57:00.282Z,18.00
2022-09-06T06:58:00.523Z,18.00
2022-09-06T06:59:01.654Z,18.00
2022-09-06T07:00:00.336Z,18.00
2022-09-06T07:01:00.421Z,18.00
2022-09-06T07:02:00.412Z,18.01
2022-09-06T07:03:00.485Z,18.01
2022-09-06T07:04:00.489Z,18.01
2022-09-06T07:05:00.682Z,18.01
2022-09-06T07:06:13.687Z,18.01
2022-09-06T07:07:30.604Z,18.05
2022-09-06T07:08:00.646Z,18.05
2022-09-06T07:09:00.272Z,18.05
2022-09-06T07:11:00.288Z,18.05
2022-09-06T07:12:00.309Z,18.08
2022-09-06T07:13:00.413Z,18.08
2022-09-06T07:14:00.274Z,18.08
2022-09-06T07:15:00.298Z,18.08
2022-09-06T07:16:10.218Z,18.08
2022-09-06T07:17:00.434Z,18.07
2022-09-06T07:18:00.273Z,18.07
2022-09-06T07:19:00.655Z,18.07
2022-09-06T07:20:16.173Z,18.07
2022-09-06T07:22:04.421Z,18.11
2022-09-06T07:24:08.174Z,18.11
2022-09-06T07:25:00.268Z,18.11
2022-09-06T07:26:00.309Z,18.11
2022-09-06T07:28:05.666Z,18.19
2022-09-06T07:29:00.771Z,18.19
2022-09-06T07:30:00.359Z,18.19
2022-09-06T07:31:00.288Z,18.19
2022-09-06T07:32:12.945Z,18.20
2022-09-06T07:33:00.278Z,18.20
2022-09-06T07:34:00.295Z,18.20
2022-09-06T07:35:00.272Z,18.20
2022-09-06T07:36:01.123Z,18.20
2022-09-06T07:37:00.320Z,18.29
2022-09-06T07:38:00.576Z,18.29
2022-09-06T07:39:00.276Z,18.29
2022-09-06T07:40:00.554Z,18.29
2022-09-06T07:41:02.059Z,18.29
2022-09-06T07:42:00.261Z,18.39
2022-09-06T07:43:00.273Z,18.39
2022-09-06T07:44:00.327Z,18.39
2022-09-06T07:45:00.307Z,18.39
2022-09-06T07:46:03.151Z,18.39
2022-09-06T07:48:00.399Z,18.59
2022-09-06T07:49:02.540Z,18.59
2022-09-06T07:51:08.520Z,18.59
2022-09-06T07:52:00.478Z,18.73
2022-09-06T07:54:28.935Z,18.73
2022-09-06T07:55:00.260Z,18.73
2022-09-06T07:56:01.287Z,18.73
2022-09-06T07:57:00.282Z,18.71
2022-09-06T07:58:00.265Z,18.71
2022-09-06T07:59:00.263Z,18.71
2022-09-06T08:00:00.489Z,18.71
2022-09-06T08:01:10.230Z,18.71
2022-09-06T08:02:00.362Z,18.77
2022-09-06T08:03:00.316Z,18.77
2022-09-06T08:04:01.838Z,18.77
2022-09-06T08:05:00.304Z,18.77
2022-09-06T08:09:00.618Z,18.78
2022-09-06T08:10:00.276Z,18.78
2022-09-06T08:11:00.349Z,18.78
2022-09-06T08:12:00.568Z,18.91
2022-09-06T08:13:00.342Z,18.91
2022-09-06T08:14:01.077Z,18.91
2022-09-06T08:15:00.279Z,18.91
2022-09-06T08:16:01.516Z,18.91
2022-09-06T08:17:00.713Z,18.98
2022-09-06T08:18:00.318Z,18.98
2022-09-06T08:19:02.117Z,18.98
2022-09-06T08:20:00.788Z,18.98
2022-09-06T08:21:12.212Z,18.98
2022-09-06T08:22:00.304Z,19.09
2022-09-06T08:23:00.274Z,19.09
2022-09-06T08:24:01.823Z,19.09
2022-09-06T08:25:00.281Z,19.09
2022-09-06T08:26:02.179Z,19.09
2022-09-06T08:27:00.708Z,19.31
2022-09-06T08:28:00.305Z,19.31
2022-09-06T08:29:02.783Z,19.31
2022-09-06T08:30:00.273Z,19.31
2022-09-06T08:31:08.582Z,19.31
2022-09-06T08:32:00.342Z,19.43
2022-09-06T08:33:00.446Z,19.43
2022-09-06T08:34:00.817Z,19.43
2022-09-06T08:35:00.276Z,19.43
2022-09-06T08:36:00.588Z,19.43
2022-09-06T08:37:00.267Z,19.51
2022-09-06T08:38:00.273Z,19.51
2022-09-06T08:39:03.450Z,19.51
2022-09-06T08:40:00.447Z,19.51
2022-09-06T08:41:09.498Z,19.51
2022-09-06T08:42:01.072Z,19.63
2022-09-06T08:43:00.651Z,19.63
2022-09-06T08:45:00.387Z,19.63
2022-09-06T08:46:00.544Z,19.63
2022-09-06T08:47:05.472Z,19.48
2022-09-06T08:48:00.351Z,19.48
2022-09-06T08:49:00.638Z,19.48
2022-09-06T08:50:02.102Z,19.48
2022-09-06T08:51:10.058Z,19.48
2022-09-06T08:52:05.283Z,19.55
2022-09-06T08:53:17.626Z,19.55
2022-09-06T08:54:05.307Z,19.55
2022-09-06T08:55:00.256Z,19.55
2022-09-06T08:56:09.665Z,19.55
2022-09-06T08:57:03.015Z,19.66
2022-09-06T08:58:10.201Z,19.66
2022-09-06T08:59:00.629Z,19.66
2022-09-06T09:00:02.299Z,19.66
2022-09-06T09:01:02.309Z,19.66
2022-09-06T09:02:08.452Z,19.63
2022-09-06T09:03:07.685Z,19.63
2022-09-06T09:04:02.839Z,19.63
2022-09-06T09:05:03.151Z,19.63
2022-09-06T09:06:00.383Z,19.63
2022-09-06T09:07:08.746Z,19.53
2022-09-06T09:08:05.296Z,19.53
2022-09-06T09:09:05.095Z,19.53
2022-09-06T09:10:02.212Z,19.53
2022-09-06T09:11:01.969Z,19.53
2022-09-06T09:12:00.895Z,19.55
2022-09-06T09:13:02.471Z,19.55
2022-09-06T09:14:03.597Z,19.55
2022-09-06T09:15:04.501Z,19.55
2022-09-06T09:16:00.426Z,19.55
2022-09-06T09:17:10.168Z,19.60
2022-09-06T09:18:00.325Z,19.60
2022-09-06T09:19:01.730Z,19.60
2022-09-06T09:20:00.320Z,19.60
2022-09-06T09:21:00.523Z,19.60
2022-09-06T09:22:00.322Z,19.71
2022-09-06T09:23:00.685Z,19.71
2022-09-06T09:24:03.437Z,19.71
2022-09-06T09:25:01.040Z,19.71
2022-09-06T09:26:03.718Z,19.71
2022-09-06T09:27:05.737Z,19.81
2022-09-06T09:28:01.159Z,19.81
2022-09-06T09:29:02.832Z,19.81
2022-09-06T09:31:01.048Z,19.81
2022-09-06T09:32:00.449Z,20.04
2022-09-06T09:33:00.289Z,20.04
2022-09-06T09:34:00.335Z,20.04
2022-09-06T09:35:10.206Z,20.04
2022-09-06T09:36:01.778Z,20.04
2022-09-06T09:38:11.813Z,20.13
2022-09-06T09:39:07.340Z,20.13
2022-09-06T09:40:00.483Z,20.13
2022-09-06T09:41:01.708Z,20.13
2022-09-06T09:42:00.714Z,20.09
2022-09-06T09:43:10.044Z,20.09
2022-09-06T09:44:04.875Z,20.09
2022-09-06T09:45:00.914Z,20.09
2022-09-06T09:46:10.214Z,20.09
2022-09-06T09:47:09.013Z,20.07
2022-09-06T09:48:10.193Z,20.07
2022-09-06T09:49:00.255Z,20.07
2022-09-06T09:50:00.344Z,20.07
2022-09-06T09:51:10.176Z,20.07
2022-09-06T09:52:06.220Z,20.08
2022-09-06T09:53:10.175Z,20.08
2022-09-06T09:54:01.696Z,20.08
2022-09-06T09:55:02.315Z,20.08
2022-09-06T09:56:00.392Z,20.08
2022-09-06T09:57:00.350Z,20.14
2022-09-06T09:58:00.346Z,20.14
2022-09-06T09:59:01.149Z,20.14
2022-09-06T10:00:00.544Z,20.14
2022-09-06T10:01:08.985Z,20.14
2022-09-06T10:02:01.103Z,20.23
2022-09-06T10:03:10.109Z,20.23
2022-09-06T10:05:05.498Z,20.23
2022-09-06T10:06:02.410Z,20.23
2022-09-06T10:07:10.556Z,20.39
2022-09-06T10:08:00.352Z,20.39
2022-09-06T10:09:10.187Z,20.39
2022-09-06T10:10:02.500Z,20.39
2022-09-06T10:11:00.331Z,20.39
2022-09-06T10:12:00.296Z,20.43
2022-09-06T10:13:10.178Z,20.43
2022-09-06T10:14:10.169Z,20.43
2022-09-06T10:15:02.462Z,20.43
2022-09-06T10:16:00.376Z,20.43
2022-09-06T10:17:00.312Z,20.49
2022-09-06T10:18:00.359Z,20.49
2022-09-06T10:19:10.167Z,20.49
2022-09-06T10:20:03.956Z,20.49
2022-09-06T10:21:01.899Z,20.49
2022-09-06T10:22:07.563Z,20.51
2022-09-06T10:23:03.549Z,20.51
2022-09-06T10:25:03.511Z,20.51
2022-09-06T10:26:03.549Z,20.51
2022-09-06T10:27:00.567Z,20.59
2022-09-06T10:28:11.655Z,20.59
2022-09-06T10:29:04.357Z,20.59
2022-09-06T10:30:02.051Z,20.59
2022-09-06T10:31:03.667Z,20.59
2022-09-06T10:32:10.177Z,20.76
2022-09-06T10:33:00.258Z,20.76
2022-09-06T10:34:10.472Z,20.76
2022-09-06T10:35:10.184Z,20.76
2022-09-06T10:36:02.298Z,20.76
2022-09-06T10:37:01.259Z,20.83
2022-09-06T10:38:10.168Z,20.83
2022-09-06T10:39:04.054Z,20.83
2022-09-06T10:40:09.031Z,20.83
2022-09-06T10:41:10.176Z,20.83
2022-09-06T10:42:07.896Z,20.87
2022-09-06T10:43:02.281Z,20.87
2022-09-06T10:44:01.132Z,20.87
2022-09-06T10:45:01.261Z,20.87
2022-09-06T10:46:02.563Z,20.87
2022-09-06T10:47:07.814Z,20.85
2022-09-06T10:48:10.202Z,20.85
2022-09-06T10:49:00.306Z,20.85
2022-09-06T10:50:02.281Z,20.85
2022-09-06T10:51:05.008Z,20.85
2022-09-06T10:52:02.483Z,20.79
2022-09-06T10:53:06.297Z,20.79
2022-09-06T10:54:09.015Z,20.79
2022-09-06T10:55:02.446Z,20.79
2022-09-06T10:56:03.725Z,20.79
2022-09-06T10:57:05.313Z,20.91
2022-09-06T10:58:17.347Z,20.91
2022-09-06T10:59:36.318Z,20.91
2022-09-06T11:00:02.714Z,20.91
2022-09-06T11:01:01.055Z,20.91
2022-09-06T11:02:00.359Z,20.90
2022-09-06T11:04:04.493Z,20.90
2022-09-06T11:06:04.425Z,20.90
2022-09-06T11:07:03.915Z,20.88
2022-09-06T11:09:10.182Z,20.88
2022-09-06T11:10:05.071Z,20.88
2022-09-06T11:11:04.106Z,20.88
2022-09-06T11:12:05.644Z,21.06
2022-09-06T11:13:09.469Z,21.06
2022-09-06T11:14:05.725Z,21.06
2022-09-06T11:15:02.125Z,21.06
2022-09-06T11:16:06.067Z,21.06
2022-09-06T11:17:04.553Z,21.12
2022-09-06T11:18:05.868Z,21.12
2022-09-06T11:19:04.834Z,21.12
2022-09-06T11:20:10.305Z,21.12
2022-09-06T11:21:10.257Z,21.12
2022-09-06T11:22:01.293Z,21.30
2022-09-06T11:23:10.203Z,21.30
2022-09-06T11:24:00.340Z,21.30
2022-09-06T11:25:03.650Z,21.30
2022-09-06T11:26:10.255Z,21.30
2022-09-06T11:27:07.689Z,21.48
2022-09-06T11:28:02.066Z,21.48
2022-09-06T11:29:05.606Z,21.48
2022-09-06T11:30:01.625Z,21.48
2022-09-06T11:31:01.746Z,21.48
2022-09-06T11:32:18.299Z,21.65
2022-09-06T11:33:08.921Z,21.65
2022-09-06T11:34:06.368Z,21.65
2022-09-06T11:35:03.149Z,21.65
2022-09-06T11:36:10.187Z,21.65
2022-09-06T11:37:01.179Z,21.69
2022-09-06T11:38:02.766Z,21.69
2022-09-06T11:39:01.712Z,21.69
2022-09-06T11:40:30.724Z,21.69
2022-09-06T11:41:01.482Z,21.69
2022-09-06T11:42:00.841Z,21.87
2022-09-06T11:43:00.279Z,21.87
2022-09-06T11:44:00.983Z,21.87
2022-09-06T11:45:00.271Z,21.87
2022-09-06T11:46:00.518Z,21.87
2022-09-06T11:47:00.459Z,21.75
2022-09-06T11:48:10.190Z,21.75
2022-09-06T11:49:05.513Z,21.75
2022-09-06T11:50:10.207Z,21.75
2022-09-06T11:51:03.215Z,21.75
2022-09-06T11:52:00.387Z,21.69
2022-09-06T11:53:10.185Z,21.69
2022-09-06T11:54:08.122Z,21.69
2022-09-06T11:55:00.809Z,21.69
2022-09-06T11:56:00.317Z,21.69
2022-09-06T11:57:08.038Z,21.72
2022-09-06T11:58:01.857Z,21.72
2022-09-06T11:59:07.146Z,21.72
2022-09-06T12:00:02.830Z,21.72
2022-09-06T12:01:10.178Z,21.72
2022-09-06T12:02:00.296Z,21.77
2022-09-06T12:05:00.853Z,21.77
2022-09-06T12:06:10.176Z,21.77
2022-09-06T12:07:09.869Z,21.85
2022-09-06T12:08:10.182Z,21.85
2022-09-06T12:09:01.021Z,21.85
2022-09-06T12:10:01.198Z,21.85
2022-09-06T12:11:01.515Z,21.85
2022-09-06T12:12:00.488Z,21.87
2022-09-06T12:13:00.310Z,21.87
2022-09-06T12:14:00.267Z,21.87
2022-09-06T12:15:10.193Z,21.87
2022-09-06T12:16:00.406Z,21.87
2022-09-06T12:17:00.279Z,21.88
2022-09-06T12:18:00.390Z,21.88
2022-09-06T12:19:00.825Z,21.88
2022-09-06T12:20:01.360Z,21.88
2022-09-06T12:21:00.821Z,21.88
2022-09-06T12:22:00.279Z,21.95
2022-09-06T12:23:00.481Z,21.95
2022-09-06T12:24:00.974Z,21.95
2022-09-06T12:25:00.270Z,21.95
2022-09-06T12:26:03.591Z,21.95
2022-09-06T12:27:10.188Z,22.08
2022-09-06T12:28:01.482Z,22.08
2022-09-06T12:29:00.355Z,22.08
2022-09-06T12:30:02.806Z,22.08
2022-09-06T12:31:00.829Z,22.08
2022-09-06T12:32:00.422Z,22.22
2022-09-06T12:33:01.554Z,22.22
2022-09-06T12:34:05.669Z,22.22
2022-09-06T12:36:10.169Z,22.22
2022-09-06T12:37:02.369Z,22.31
2022-09-06T12:38:01.695Z,22.31
2022-09-06T12:39:07.386Z,22.31
2022-09-06T12:40:00.434Z,22.31
2022-09-06T12:41:03.146Z,22.31
2022-09-06T12:42:02.001Z,22.24
2022-09-06T12:43:02.097Z,22.24
2022-09-06T12:44:02.879Z,22.24
2022-09-06T12:45:02.247Z,22.24
2022-09-06T12:46:01.451Z,22.24
2022-09-06T12:47:03.575Z,22.08
2022-09-06T12:48:05.119Z,22.08
2022-09-06T12:49:08.899Z,22.08
2022-09-06T12:50:10.191Z,22.08
2022-09-06T12:51:00.258Z,22.08
2022-09-06T12:52:09.394Z,22.24
2022-09-06T12:53:01.179Z,22.24
2022-09-06T12:54:02.109Z,22.24
2022-09-06T12:55:00.323Z,22.24
2022-09-06T12:56:01.999Z,22.24
2022-09-06T12:57:10.190Z,22.36
2022-09-06T12:58:01.697Z,22.36
2022-09-06T12:59:10.238Z,22.36
2022-09-06T13:00:00.326Z,22.36
2022-09-06T13:01:10.223Z,22.36
2022-09-06T13:02:04.297Z,22.50
2022-09-06T13:03:10.171Z,22.50
2022-09-06T13:04:00.276Z,22.50
2022-09-06T13:05:04.007Z,22.50
2022-09-06T13:06:02.636Z,22.50
2022-09-06T13:07:01.673Z,22.60
2022-09-06T13:08:01.777Z,22.60
2022-09-06T13:09:00.503Z,22.60
2022-09-06T13:10:01.014Z,22.60
2022-09-06T13:11:01.133Z,22.60
2022-09-06T13:12:04.220Z,22.67
2022-09-06T13:13:00.316Z,22.67